Time;durP1;ratioP1;P1;durP2;ratioP2;P2;SDS_P1;SDS_P2;PMS_P1;PMS_P2;Temp;Humidity;BMP_temperature;BMP_pressure;BME280_temperature;BME280_humidity;BME280_pressure;Samples;Min_cycle;Max_cycle;Signal;HPM_P1;HPM_P2
2022/03/20 00:00:32;;;;;;;27.77;11.80;;;7.50;45.80;;;;;;5044569;28;20045;-64
2022/03/20 00:02:58;;;;;;;22.55;12.45;;;7.50;45.00;;;;;;5043152;28;20041;-63
2022/03/20 00:05:24;;;;;;;22.23;11.93;;;7.50;44.90;;;;;;5044309;28;20025;-62
2022/03/20 00:07:50;;;;;;;23.08;11.60;;;7.50;44.90;;;;;;5042080;28;20025;-63
2022/03/20 00:10:16;;;;;;;20.48;11.93;;;7.50;45.00;;;;;;5041174;28;20490;-64
2022/03/20 00:12:42;;;;;;;16.67;10.82;;;7.50;45.20;;;;;;5043514;28;20029;-64
2022/03/20 00:15:09;;;;;;;20.15;11.90;;;7.50;45.10;;;;;;5040765;28;20349;-65
2022/03/20 00:17:36;;;;;;;20.60;11.40;;;7.50;45.10;;;;;;5043298;28;20055;-64
2022/03/20 00:20:02;;;;;;;23.80;13.90;;;7.50;45.10;;;;;;5045441;28;20098;-64
2022/03/20 00:22:30;;;;;;;19.25;11.93;;;7.50;45.00;;;;;;5039522;28;20056;-63
2022/03/20 00:24:56;;;;;;;20.58;11.98;;;7.50;45.20;;;;;;5045395;28;20044;-63
2022/03/20 00:27:22;;;;;;;21.08;12.80;;;7.40;45.30;;;;;;5043353;28;20488;-63
2022/03/20 00:29:47;;;;;;;19.52;12.27;;;7.40;45.20;;;;;;5049366;28;20040;-65
2022/03/20 00:32:14;;;;;;;21.92;12.85;;;7.40;45.20;;;;;;5046441;28;20091;-65
2022/03/20 00:34:40;;;;;;;20.00;11.35;;;7.40;45.20;;;;;;5043910;28;20038;-64
2022/03/20 00:37:06;;;;;;;21.67;12.63;;;7.40;45.40;;;;;;5047652;28;20029;-64
2022/03/20 00:39:33;;;;;;;22.25;12.65;;;7.40;45.50;;;;;;5045592;28;20033;-65
2022/03/20 00:41:59;;;;;;;21.95;12.27;;;7.40;45.50;;;;;;5046206;28;20025;-64
2022/03/20 00:44:25;;;;;;;23.50;13.70;;;7.40;45.60;;;;;;5040281;28;20056;-63
2022/03/20 00:46:50;;;;;;;22.00;13.18;;;7.30;45.50;;;;;;5045892;28;20029;-64
2022/03/20 00:49:17;;;;;;;23.00;12.65;;;7.30;45.50;;;;;;5052673;28;20025;-64
2022/03/20 00:51:43;;;;;;;21.33;12.80;;;7.30;45.60;;;;;;5032420;28;20104;-65
2022/03/20 00:54:10;;;;;;;20.92;12.65;;;7.30;45.50;;;;;;5006871;28;20091;-64
2022/03/20 00:56:37;;;;;;;22.00;13.00;;;7.30;45.70;;;;;;5010568;28;20030;-64
2022/03/20 00:59:03;;;;;;;21.75;12.20;;;7.30;45.80;;;;;;5014606;28;20032;-65
2022/03/20 01:01:29;;;;;;;22.30;13.07;;;7.30;45.80;;;;;;5034597;28;20056;-64
2022/03/20 01:03:56;;;;;;;21.55;12.88;;;7.20;45.80;;;;;;5030238;28;20064;-64
2022/03/20 01:06:22;;;;;;;22.23;14.18;;;7.20;45.80;;;;;;5038051;28;20076;-64
2022/03/20 01:08:49;;;;;;;24.83;13.25;;;7.20;45.80;;;;;;5015044;28;20041;-63
2022/03/20 01:11:16;;;;;;;24.25;12.98;;;7.20;45.90;;;;;;5029154;28;20039;-63
2022/03/20 01:13:42;;;;;;;25.80;13.90;;;7.20;46.00;;;;;;5035141;28;20104;-63
2022/03/20 01:16:08;;;;;;;21.63;12.93;;;7.10;46.00;;;;;;5029243;28;20045;-62
2022/03/20 01:18:34;;;;;;;22.83;13.82;;;7.10;46.00;;;;;;5025288;28;20093;-65
2022/03/20 01:21:01;;;;;;;25.73;13.45;;;7.10;46.00;;;;;;5014124;28;20053;-63
2022/03/20 01:23:26;;;;;;;24.73;13.95;;;7.10;46.10;;;;;;5026039;28;20084;-64
2022/03/20 01:25:53;;;;;;;27.27;13.50;;;7.00;46.10;;;;;;5024221;28;20034;-64
2022/03/20 01:28:20;;;;;;;23.77;14.00;;;7.00;46.20;;;;;;5031282;28;20034;-62
2022/03/20 01:30:47;;;;;;;24.02;12.98;;;7.00;46.20;;;;;;5016167;28;20053;-63
2022/03/20 01:33:13;;;;;;;27.42;14.32;;;7.00;46.30;;;;;;5012018;28;20049;-63
2022/03/20 01:35:39;;;;;;;25.67;14.00;;;6.90;46.40;;;;;;5024904;28;20053;-63
2022/03/20 01:38:05;;;;;;;27.23;13.98;;;6.90;46.40;;;;;;5033869;28;20070;-63
2022/03/20 01:40:32;;;;;;;22.70;14.43;;;6.90;46.40;;;;;;5025284;28;20076;-63
2022/03/20 01:42:58;;;;;;;26.65;14.38;;;6.90;46.50;;;;;;5030052;28;20057;-65
2022/03/20 01:45:25;;;;;;;25.73;14.05;;;6.80;46.50;;;;;;5011675;28;20026;-63
2022/03/20 01:47:52;;;;;;;26.15;14.45;;;6.90;46.60;;;;;;5037615;28;20078;-64
2022/03/20 01:50:23;;;;;;;24.90;14.32;;;6.80;46.60;;;;;;5020269;28;20062;-65
2022/03/20 01:52:51;;;;;;;24.80;14.13;;;6.80;46.70;;;;;;5038335;28;20060;-64
2022/03/20 01:55:18;;;;;;;27.58;14.00;;;6.80;46.80;;;;;;5042596;28;20037;-65
2022/03/20 01:57:44;;;;;;;27.58;14.85;;;6.80;46.80;;;;;;5040282;28;20026;-63
2022/03/20 02:00:14;;;;;;;25.08;14.93;;;6.80;46.90;;;;;;5026708;28;20113;-63
2022/03/20 02:02:40;;;;;;;25.55;14.05;;;6.80;46.90;;;;;;5043831;28;20034;-65
2022/03/20 02:05:09;;;;;;;25.02;13.95;;;6.70;46.90;;;;;;5034528;28;20036;-65
2022/03/20 02:07:37;;;;;;;23.25;13.88;;;6.70;47.00;;;;;;5044194;28;20034;-65
2022/03/20 02:10:04;;;;;;;21.50;13.73;;;6.70;47.00;;;;;;5043113;28;20026;-64
2022/03/20 02:12:31;;;;;;;32.05;13.88;;;6.70;47.10;;;;;;5044255;28;20022;-64
2022/03/20 02:14:58;;;;;;;26.17;14.98;;;6.60;47.10;;;;;;5038533;28;20092;-64
2022/03/20 02:17:30;;;;;;;24.92;14.60;;;6.60;47.20;;;;;;5048681;28;20076;-64
2022/03/20 02:20:03;;;;;;;27.60;16.25;;;6.60;47.20;;;;;;5046811;28;20100;-64
2022/03/20 02:22:32;;;;;;;26.20;14.57;;;6.60;47.20;;;;;;5048862;28;20155;-64
2022/03/20 02:25:04;;;;;;;31.42;15.25;;;6.60;47.30;;;;;;5045380;28;20057;-64
2022/03/20 02:27:32;;;;;;;25.48;14.68;;;6.50;47.40;;;;;;5048084;28;20018;-64
2022/03/20 02:30:06;;;;;;;24.73;14.98;;;6.50;47.40;;;;;;5037862;28;20033;-64
2022/03/20 02:32:32;;;;;;;26.10;15.18;;;6.50;47.60;;;;;;5044953;28;20025;-64
2022/03/20 02:35:04;;;;;;;26.95;15.85;;;6.50;47.60;;;;;;5044887;28;20049;-64
2022/03/20 02:37:31;;;;;;;32.17;15.20;;;6.40;47.60;;;;;;5047668;28;20077;-64
2022/03/20 02:40:00;;;;;;;25.70;14.57;;;6.40;47.60;;;;;;5043299;28;20025;-64
2022/03/20 02:42:26;;;;;;;24.70;14.35;;;6.40;47.60;;;;;;5041792;28;20487;-64
2022/03/20 02:45:00;;;;;;;28.73;14.93;;;6.40;47.70;;;;;;5047456;28;20017;-64
2022/03/20 02:47:35;;;;;;;33.58;16.83;;;6.30;47.80;;;;;;5034078;28;20041;-64
2022/03/20 02:50:11;;;;;;;24.88;15.57;;;6.30;47.90;;;;;;5045191;28;20053;-64
2022/03/20 02:52:51;;;;;;;27.77;15.77;;;6.30;48.00;;;;;;5043115;28;20049;-64
2022/03/20 02:55:22;;;;;;;26.33;16.13;;;6.30;48.10;;;;;;5044322;28;20088;-64
2022/03/20 02:57:49;;;;;;;26.60;15.38;;;6.30;48.10;;;;;;5039167;28;20033;-64
2022/03/20 03:00:18;;;;;;;27.92;15.13;;;6.20;48.20;;;;;;5043603;28;20017;-64
2022/03/20 03:02:45;;;;;;;31.48;15.20;;;6.20;48.30;;;;;;5048042;28;20036;-64
2022/03/20 03:05:16;;;;;;;28.08;16.23;;;6.20;48.40;;;;;;5049435;28;20025;-64
2022/03/20 03:13:14;;;;;;;28.08;15.55;;;6.20;48.50;;;;;;5042740;28;20112;-64
2022/03/20 03:15:40;;;;;;;25.55;14.68;;;6.20;48.50;;;;;;5049211;28;20025;-64
2022/03/20 03:18:06;;;;;;;26.60;15.65;;;6.20;48.60;;;;;;5032054;28;20092;-64
2022/03/20 03:20:32;;;;;;;27.23;15.30;;;6.20;48.70;;;;;;5049505;28;20068;-64
2022/03/20 03:22:59;;;;;;;28.08;15.52;;;6.20;48.60;;;;;;5027851;28;20855;-64
2022/03/20 03:25:25;;;;;;;30.13;14.88;;;6.20;48.70;;;;;;5043235;28;20492;-63
2022/03/20 03:27:51;;;;;;;28.73;16.38;;;6.20;48.80;;;;;;5052767;28;20021;-64
2022/03/20 03:30:18;;;;;;;31.67;16.45;;;6.20;48.90;;;;;;5045403;28;20025;-64
2022/03/20 03:32:44;;;;;;;27.25;15.05;;;6.20;48.90;;;;;;5042378;28;20032;-65
2022/03/20 03:37:55;;;;;;;33.72;16.33;;;6.20;48.80;;;;;;5046022;28;20096;-63
2022/03/20 03:40:21;;;;;;;30.50;16.40;;;6.20;48.80;;;;;;5048732;28;20487;-63
2022/03/20 03:42:47;;;;;;;30.38;17.08;;;6.20;49.40;;;;;;5047954;28;20102;-63
2022/03/20 03:45:13;;;;;;;28.10;17.08;;;6.20;49.60;;;;;;5053451;28;20037;-63
2022/03/20 03:47:38;;;;;;;28.15;15.35;;;6.30;49.20;;;;;;5043981;28;20101;-64
2022/03/20 03:50:05;;;;;;;28.77;16.83;;;6.20;49.10;;;;;;5040271;28;20026;-64
2022/03/20 03:52:30;;;;;;;32.20;16.42;;;6.30;49.20;;;;;;5048855;28;20053;-65
2022/03/20 03:54:56;;;;;;;30.35;16.75;;;6.30;49.20;;;;;;5044510;28;20033;-64
2022/03/20 03:57:22;;;;;;;28.95;17.23;;;6.30;49.20;;;;;;5046617;28;20517;-65
2022/03/20 03:59:48;;;;;;;28.90;16.55;;;6.30;49.20;;;;;;5050633;28;20041;-64
2022/03/20 04:02:14;;;;;;;30.50;16.45;;;6.30;49.20;;;;;;5048591;28;20041;-63
2022/03/20 04:04:41;;;;;;;27.77;16.70;;;6.30;49.20;;;;;;5029632;28;20025;-63
2022/03/20 04:07:07;;;;;;;31.73;16.65;;;6.40;49.20;;;;;;5054042;28;20021;-64
2022/03/20 04:09:34;;;;;;;25.83;15.25;;;6.40;49.30;;;;;;5047870;28;20087;-64
2022/03/20 04:12:00;;;;;;;31.40;16.58;;;6.40;49.30;;;;;;5038959;28;20077;-65
2022/03/20 04:14:26;;;;;;;29.55;16.35;;;6.70;49.50;;;;;;5045244;28;20034;-65
2022/03/20 04:16:54;;;;;;;34.92;18.17;;;6.40;49.40;;;;;;5029896;28;20071;-65
2022/03/20 04:19:20;;;;;;;32.85;18.75;;;6.40;49.40;;;;;;5045168;28;20376;-64
2022/03/20 04:21:48;;;;;;;30.98;18.48;;;6.40;49.20;;;;;;5048451;28;20467;-65
2022/03/20 04:24:14;;;;;;;31.02;18.45;;;6.40;49.20;;;;;;5050678;28;20057;-64
2022/03/20 04:26:39;;;;;;;33.28;17.48;;;6.40;49.40;;;;;;5046901;28;20029;-64
2022/03/20 04:29:05;;;;;;;32.35;18.45;;;6.40;49.40;;;;;;5049220;28;20041;-64
2022/03/20 04:31:31;;;;;;;29.55;17.52;;;6.40;49.50;;;;;;5042186;28;20193;-64
2022/03/20 04:33:56;;;;;;;30.90;18.23;;;6.40;49.60;;;;;;5044183;28;20087;-65
2022/03/20 04:36:25;;;;;;;33.67;18.83;;;6.40;49.50;;;;;;5047093;28;20108;-65
2022/03/20 04:38:53;;;;;;;34.72;18.20;;;6.40;49.60;;;;;;5045095;28;20502;-63
2022/03/20 04:41:19;;;;;;;32.45;18.05;;;6.50;49.70;;;;;;5045333;28;20060;-64
2022/03/20 04:43:47;;;;;;;34.50;17.70;;;6.50;49.80;;;;;;5038754;28;20032;-64
2022/03/20 04:46:13;;;;;;;31.65;17.83;;;6.50;49.90;;;;;;5047337;28;20098;-63
2022/03/20 04:59:36;;;;;;;29.92;16.08;;;6.60;49.60;;;;;;5036229;28;20048;-65
2022/03/20 05:02:02;;;;;;;28.25;15.95;;;6.60;49.60;;;;;;5037560;28;20105;-65
2022/03/20 05:04:27;;;;;;;30.33;16.90;;;6.60;49.60;;;;;;5048361;28;20144;-64
2022/03/20 05:06:53;;;;;;;30.10;17.27;;;6.50;49.60;;;;;;5052197;28;20419;-65
2022/03/20 05:14:48;;;;;;;32.05;17.83;;;6.50;49.70;;;;;;5043390;28;20076;-65
2022/03/20 05:17:14;;;;;;;29.40;16.73;;;6.50;49.80;;;;;;5048403;28;20022;-63
2022/03/20 05:19:40;;;;;;;32.92;17.75;;;6.50;49.80;;;;;;5044891;28;20037;-63
2022/03/20 05:22:10;;;;;;;31.95;17.75;;;6.40;49.80;;;;;;5046751;28;20092;-64
2022/03/20 05:24:38;;;;;;;32.85;16.80;;;6.40;49.90;;;;;;5043961;28;20044;-63
2022/03/20 05:27:05;;;;;;;30.75;17.38;;;6.40;49.90;;;;;;5044863;28;20069;-63
2022/03/20 05:29:31;;;;;;;36.40;19.80;;;6.40;49.90;;;;;;5054355;28;20029;-63
2022/03/20 05:31:58;;;;;;;31.15;17.45;;;6.40;50.00;;;;;;5053047;28;20032;-65
2022/03/20 05:34:23;;;;;;;34.50;19.48;;;6.40;50.00;;;;;;5029861;28;20033;-64
2022/03/20 05:36:51;;;;;;;34.95;19.88;;;6.30;50.10;;;;;;5019715;28;20049;-64
2022/03/20 05:39:17;;;;;;;33.80;18.42;;;6.40;50.10;;;;;;5050747;28;20021;-64
2022/03/20 05:41:50;;;;;;;29.92;17.95;;;6.30;50.20;;;;;;5049431;28;20025;-64
2022/03/20 05:44:21;;;;;;;34.85;19.73;;;6.30;50.70;;;;;;5052630;28;20017;-65
2022/03/20 05:46:50;;;;;;;31.80;18.30;;;6.30;50.10;;;;;;5044199;28;20025;-63
2022/03/20 05:49:17;;;;;;;35.15;19.00;;;6.30;50.10;;;;;;5052107;28;20088;-63
2022/03/20 05:51:43;;;;;;;34.90;19.33;;;6.30;50.20;;;;;;5047019;28;20037;-63
2022/03/20 05:54:09;;;;;;;38.47;19.98;;;6.30;50.20;;;;;;5042163;28;20040;-63
2022/03/20 05:59:19;;;;;;;;;;;6.30;50.30;;;;;;5045003;28;20040;-64
2022/03/20 06:01:45;;;;;;;34.15;18.75;;;6.30;50.30;;;;;;5045271;28;19984;-63
2022/03/20 06:04:12;;;;;;;32.72;18.05;;;6.30;50.00;;;;;;5051550;28;20491;-65
2022/03/20 06:06:37;;;;;;;31.95;18.73;;;6.30;50.10;;;;;;5053285;28;20030;-63
2022/03/20 06:09:06;;;;;;;37.15;20.02;;;6.30;50.30;;;;;;5048208;28;20071;-63
2022/03/20 06:11:34;;;;;;;32.67;18.58;;;6.30;50.40;;;;;;5045663;28;20033;-64
2022/03/20 06:14:03;;;;;;;32.83;18.45;;;6.30;50.30;;;;;;5050915;28;20041;-63
2022/03/20 06:16:29;;;;;;;32.38;18.33;;;6.30;50.50;;;;;;5055057;28;20040;-64
2022/03/20 06:18:55;;;;;;;36.35;19.55;;;6.30;50.50;;;;;;5042636;28;20108;-63
2022/03/20 06:21:22;;;;;;;34.38;19.83;;;6.30;50.60;;;;;;5047513;28;20036;-63
2022/03/20 06:23:49;;;;;;;37.67;19.13;;;6.30;50.70;;;;;;5045604;28;20028;-65
2022/03/20 06:26:16;;;;;;;35.25;19.85;;;6.40;50.70;;;;;;5045924;28;20077;-64
2022/03/20 06:28:43;;;;;;;34.83;19.65;;;6.40;50.70;;;;;;5044652;28;20071;-63
2022/03/20 06:31:10;;;;;;;36.15;20.33;;;6.50;50.70;;;;;;5047480;28;20025;-63
2022/03/20 06:33:37;;;;;;;35.67;19.85;;;6.50;50.70;;;;;;5047866;28;20040;-62
2022/03/20 06:36:04;;;;;;;34.92;19.27;;;6.60;50.70;;;;;;5039923;28;20088;-63
2022/03/20 06:38:31;;;;;;;35.92;20.38;;;6.70;50.70;;;;;;5043167;28;20051;-64
2022/03/20 06:40:57;;;;;;;38.03;21.02;;;6.70;50.50;;;;;;5024857;28;20123;-64
2022/03/20 06:43:26;;;;;;;39.55;20.08;;;6.80;50.50;;;;;;5034193;28;20026;-64
2022/03/20 06:45:55;;;;;;;32.53;19.08;;;6.90;50.50;;;;;;5043193;28;20048;-64
2022/03/20 06:48:21;;;;;;;31.10;18.92;;;6.90;50.50;;;;;;5040081;28;20037;-64
2022/03/20 06:50:47;;;;;;;40.28;21.67;;;7.00;50.50;;;;;;5041706;28;20093;-64
2022/03/20 06:53:13;;;;;;;34.25;19.98;;;7.00;50.50;;;;;;5037698;28;20025;-64
2022/03/20 06:55:39;;;;;;;34.00;20.40;;;7.20;50.50;;;;;;5040254;28;20033;-65
2022/03/20 06:58:05;;;;;;;36.15;20.38;;;7.20;50.30;;;;;;5042440;28;20040;-64
2022/03/20 07:00:31;;;;;;;35.45;20.75;;;7.40;50.30;;;;;;5040838;28;20026;-65
2022/03/20 07:02:59;;;;;;;31.92;19.75;;;7.40;50.20;;;;;;5039521;28;20044;-65
2022/03/20 07:05:25;;;;;;;34.50;20.17;;;7.50;50.20;;;;;;5037033;28;20029;-64
2022/03/20 07:07:51;;;;;;;35.45;20.55;;;7.60;50.10;;;;;;5037082;28;20514;-65
2022/03/20 07:10:25;;;;;;;37.67;20.83;;;7.70;50.20;;;;;;5051884;28;20025;-65
2022/03/20 07:12:51;;;;;;;34.67;20.38;;;7.80;50.00;;;;;;5041950;28;20026;-64
2022/03/20 07:15:19;;;;;;;34.80;19.85;;;7.90;50.00;;;;;;5043462;28;20044;-64
2022/03/20 07:17:47;;;;;;;34.35;19.75;;;7.90;49.90;;;;;;5039854;28;20029;-65
2022/03/20 07:20:15;;;;;;;34.13;20.30;;;8.00;49.90;;;;;;5044709;28;20021;-65
2022/03/20 07:22:41;;;;;;;34.80;20.23;;;8.10;49.70;;;;;;5040265;28;20483;-64
2022/03/20 07:30:38;;;;;;;31.98;19.15;;;8.30;49.40;;;;;;5044390;28;20037;-63
2022/03/20 07:33:04;;;;;;;30.80;19.70;;;8.30;49.30;;;;;;5046791;28;20026;-64
2022/03/20 07:35:30;;;;;;;34.10;19.60;;;8.40;49.40;;;;;;5047247;28;20061;-65
2022/03/20 07:37:56;;;;;;;32.95;20.08;;;8.40;49.20;;;;;;5035655;28;20116;-64
2022/03/20 07:40:22;;;;;;;32.13;20.15;;;8.50;49.30;;;;;;5029560;28;20123;-64
2022/03/20 07:42:48;;;;;;;34.00;20.27;;;8.50;49.40;;;;;;5044398;28;20026;-64
2022/03/20 07:45:13;;;;;;;33.40;20.52;;;8.70;49.30;;;;;;5048373;28;20026;-64
2022/03/20 07:47:39;;;;;;;33.63;19.90;;;8.70;49.20;;;;;;5056293;28;20083;-64
2022/03/20 07:50:07;;;;;;;34.35;21.10;;;8.80;49.20;;;;;;5050818;28;20032;-65
2022/03/20 07:52:35;;;;;;;33.20;20.48;;;8.90;49.10;;;;;;5038301;28;20164;-66
2022/03/20 07:55:01;;;;;;;34.83;20.40;;;9.00;49.10;;;;;;5030656;28;20072;-65
2022/03/20 07:57:29;;;;;;;32.30;19.85;;;9.10;48.80;;;;;;5045207;28;20509;-65
2022/03/20 07:59:55;;;;;;;31.25;18.60;;;9.10;48.70;;;;;;5032344;28;20029;-63
2022/03/20 08:02:20;;;;;;;33.63;19.88;;;9.20;48.60;;;;;;5050096;28;20025;-65
2022/03/20 08:04:46;;;;;;;27.83;18.50;;;9.20;48.60;;;;;;5046137;28;20131;-65
2022/03/20 08:07:12;;;;;;;29.60;18.95;;;9.30;48.50;;;;;;5044650;28;20050;-65
2022/03/20 08:09:38;;;;;;;31.42;19.05;;;9.40;48.40;;;;;;5040828;28;20030;-65
2022/03/20 08:12:06;;;;;;;28.45;18.73;;;9.50;48.40;;;;;;5049667;28;20379;-64
2022/03/20 08:14:31;;;;;;;32.95;20.25;;;9.60;48.30;;;;;;5053443;28;20037;-65
2022/03/20 08:16:57;;;;;;;35.55;20.20;;;9.60;48.30;;;;;;5049969;28;20486;-65
2022/03/20 08:19:24;;;;;;;29.48;18.63;;;9.70;48.30;;;;;;5049347;28;20029;-64
2022/03/20 08:21:51;;;;;;;33.88;20.40;;;9.90;48.30;;;;;;5048920;28;21273;-64
2022/03/20 08:24:17;;;;;;;34.40;20.65;;;10.00;48.10;;;;;;5048581;28;20517;-65
2022/03/20 08:26:43;;;;;;;33.20;20.70;;;10.10;47.90;;;;;;5028400;28;20024;-65
2022/03/20 08:29:11;;;;;;;34.63;21.60;;;10.20;47.70;;;;;;5048230;28;20033;-64
2022/03/20 08:31:37;;;;;;;30.73;19.88;;;10.30;47.60;;;;;;5048990;28;20026;-65
2022/03/20 08:34:05;;;;;;;31.85;20.20;;;10.40;47.70;;;;;;5031789;28;20022;-63
2022/03/20 08:36:31;;;;;;;31.05;19.63;;;10.50;47.60;;;;;;5045862;28;20085;-63
2022/03/20 08:38:57;;;;;;;30.98;20.60;;;10.60;47.50;;;;;;5029754;28;20033;-63
2022/03/20 08:41:22;;;;;;;31.83;20.98;;;10.70;47.10;;;;;;5044886;28;20057;-63
2022/03/20 08:43:48;;;;;;;30.02;19.58;;;10.80;46.50;;;;;;5019876;28;20065;-63
2022/03/20 08:46:17;;;;;;;31.15;20.75;;;10.90;46.70;;;;;;5045309;28;20030;-63
2022/03/20 08:48:42;;;;;;;30.83;20.38;;;11.00;46.70;;;;;;5045571;28;20471;-63
2022/03/20 08:51:08;;;;;;;35.42;20.58;;;11.00;46.70;;;;;;5014241;28;1139530;-63
2022/03/20 08:53:34;;;;;;;30.73;21.20;;;11.10;46.80;;;;;;5020065;28;20038;-63
2022/03/20 08:56:00;;;;;;;32.88;21.27;;;11.20;46.80;;;;;;5045799;28;20032;-63
2022/03/20 08:58:25;;;;;;;32.90;20.67;;;11.30;46.60;;;;;;5043035;28;20057;-63
2022/03/20 09:00:51;;;;;;;30.42;20.20;;;11.40;46.70;;;;;;5049687;28;20129;-63
2022/03/20 09:03:17;;;;;;;31.95;20.65;;;11.50;46.70;;;;;;5047767;28;20025;-63
2022/03/20 09:05:43;;;;;;;35.13;20.83;;;11.50;46.60;;;;;;5032473;28;20486;-63
2022/03/20 09:08:09;;;;;;;33.45;21.02;;;11.60;46.40;;;;;;5050037;28;20021;-62
2022/03/20 09:10:35;;;;;;;33.17;22.23;;;11.70;46.30;;;;;;5036834;28;20036;-62
2022/03/20 09:13:01;;;;;;;32.80;20.83;;;11.80;46.00;;;;;;5027529;28;20033;-62
2022/03/20 09:15:29;;;;;;;30.55;19.25;;;11.90;46.00;;;;;;5044529;28;20069;-64
2022/03/20 09:20:41;;;;;;;;;;;12.00;46.00;;;;;;5039691;28;20080;-61
2022/03/20 09:23:09;;;;;;;28.92;18.88;;;12.20;45.90;;;;;;5044116;28;19909;-62
2022/03/20 09:25:35;;;;;;;31.85;20.17;;;12.30;46.20;;;;;;5049088;28;20072;-61
2022/03/20 09:28:02;;;;;;;30.40;20.58;;;12.40;46.00;;;;;;5044573;28;20030;-63
2022/03/20 09:30:28;;;;;;;27.83;19.38;;;12.40;45.60;;;;;;5045105;28;20037;-64
2022/03/20 09:32:53;;;;;;;31.92;20.70;;;12.60;45.50;;;;;;5046747;28;20022;-63
2022/03/20 09:35:19;;;;;;;40.08;20.17;;;12.60;45.40;;;;;;5026255;28;20072;-63
2022/03/20 09:37:45;;;;;;;31.80;19.52;;;12.70;45.70;;;;;;5048517;28;20030;-63
2022/03/20 09:40:11;;;;;;;29.33;20.00;;;12.80;45.60;;;;;;5046602;28;20037;-64
2022/03/20 09:42:38;;;;;;;34.60;21.60;;;12.90;45.60;;;;;;5043479;28;20036;-64
2022/03/20 09:45:09;;;;;;;29.80;19.70;;;13.00;45.30;;;;;;5045786;28;20021;-62
2022/03/20 09:47:39;;;;;;;30.88;20.15;;;13.10;45.10;;;;;;5053293;28;20079;-64
2022/03/20 09:50:06;;;;;;;28.35;19.15;;;13.20;44.80;;;;;;5051827;28;20384;-63
2022/03/20 09:52:33;;;;;;;35.72;21.95;;;13.30;44.90;;;;;;5050212;28;20048;-63
2022/03/20 09:54:59;;;;;;;32.17;20.85;;;13.40;44.00;;;;;;5052041;28;20046;-63
2022/03/20 09:57:29;;;;;;;29.42;19.45;;;13.50;44.40;;;;;;5049925;28;20031;-63
2022/03/20 09:59:57;;;;;;;30.00;20.48;;;13.70;44.20;;;;;;5045800;28;20061;-62
2022/03/20 10:02:26;;;;;;;28.40;19.77;;;13.80;44.30;;;;;;5046793;28;20021;-62
2022/03/20 10:04:53;;;;;;;25.17;18.48;;;13.90;44.10;;;;;;5049960;28;20132;-62
2022/03/20 10:07:43;;;;;;;30.17;21.10;;;13.90;44.10;;;;;;5047413;28;20044;-62
2022/03/20 10:10:17;;;;;;;32.97;20.65;;;14.00;43.40;;;;;;5039547;28;20026;-62
2022/03/20 10:12:51;;;;;;;32.88;20.80;;;14.10;43.40;;;;;;5042781;28;20402;-62
2022/03/20 10:15:39;;;;;;;30.70;20.45;;;14.20;43.30;;;;;;5042989;28;20049;-62
2022/03/20 10:18:20;;;;;;;31.60;20.65;;;14.30;43.00;;;;;;5045041;28;20021;-62
2022/03/20 10:20:58;;;;;;;29.55;18.80;;;14.40;43.00;;;;;;5045170;28;20039;-63
2022/03/20 10:23:41;;;;;;;26.92;18.63;;;14.50;43.40;;;;;;5029136;28;20029;-63
2022/03/20 10:26:15;;;;;;;29.85;18.60;;;14.60;42.80;;;;;;5041016;28;20035;-62
2022/03/20 10:28:43;;;;;;;28.63;19.95;;;14.70;42.80;;;;;;5051210;28;20391;-62
2022/03/20 10:31:18;;;;;;;29.17;19.02;;;14.80;42.90;;;;;;5039334;28;20030;-63
2022/03/20 10:33:52;;;;;;;24.77;17.58;;;14.90;43.00;;;;;;5045562;28;20021;-62
2022/03/20 10:36:21;;;;;;;28.40;19.20;;;15.00;43.10;;;;;;5045603;28;20033;-64
2022/03/20 10:38:49;;;;;;;26.63;19.02;;;15.10;42.70;;;;;;5046176;28;20029;-64
2022/03/20 10:41:20;;;;;;;30.08;20.00;;;15.20;42.80;;;;;;5040764;28;20116;-62
2022/03/20 10:43:47;;;;;;;30.00;19.40;;;15.30;42.10;;;;;;5038662;28;20463;-63
2022/03/20 10:46:32;;;;;;;28.80;18.00;;;15.50;41.90;;;;;;5045555;28;20047;-63
2022/03/20 10:49:00;;;;;;;27.98;18.83;;;15.60;42.00;;;;;;5052397;28;20197;-64
2022/03/20 10:51:37;;;;;;;25.00;16.90;;;15.70;41.90;;;;;;5022245;28;20062;-63
2022/03/20 10:54:10;;;;;;;25.95;16.98;;;15.90;41.80;;;;;;5042442;28;20047;-63
2022/03/20 10:56:50;;;;;;;24.83;17.23;;;16.00;41.60;;;;;;5041085;28;20053;-62
2022/03/20 10:59:16;;;;;;;26.63;18.55;;;16.10;41.30;;;;;;5054902;28;20436;-63
2022/03/20 11:01:47;;;;;;;27.67;18.20;;;16.20;40.80;;;;;;5042186;28;20029;-63
2022/03/20 11:04:14;;;;;;;25.75;18.15;;;16.30;40.60;;;;;;5056703;28;20040;-62
2022/03/20 11:06:45;;;;;;;28.88;17.55;;;16.30;40.20;;;;;;5054556;28;20111;-63
2022/03/20 11:09:11;;;;;;;21.17;14.70;;;16.40;40.00;;;;;;5035078;28;20028;-63
2022/03/20 11:11:49;;;;;;;23.00;14.80;;;16.40;39.90;;;;;;5043924;28;20084;-62
2022/03/20 11:14:18;;;;;;;20.02;15.20;;;16.50;38.90;;;;;;5044521;28;20040;-64
2022/03/20 11:16:47;;;;;;;20.52;14.88;;;16.60;39.10;;;;;;5042423;28;20026;-62
2022/03/20 11:19:15;;;;;;;24.48;16.38;;;16.70;38.50;;;;;;5048623;28;20043;-62
2022/03/20 11:21:44;;;;;;;22.00;15.10;;;16.80;38.40;;;;;;5048053;28;20033;-64
2022/03/20 11:24:11;;;;;;;21.55;14.75;;;16.90;38.50;;;;;;5043817;28;20036;-62
2022/03/20 11:26:43;;;;;;;22.50;14.98;;;17.00;38.90;;;;;;5049610;28;20085;-64
2022/03/20 11:29:12;;;;;;;21.35;14.25;;;17.20;37.10;;;;;;5050964;28;20450;-63
2022/03/20 11:31:38;;;;;;;20.98;15.15;;;17.30;37.90;;;;;;5053236;28;20029;-64
2022/03/20 11:34:08;;;;;;;19.88;14.63;;;17.40;37.70;;;;;;5043893;28;20077;-64
2022/03/20 11:37:06;;;;;;;25.05;15.77;;;17.50;37.80;;;;;;5047149;28;20069;-63
2022/03/20 11:39:35;;;;;;;22.10;15.10;;;17.60;36.60;;;;;;5043565;28;20164;-63
2022/03/20 11:42:19;;;;;;;19.38;14.02;;;17.70;37.30;;;;;;5043374;28;20018;-64
2022/03/20 11:45:00;;;;;;;20.70;14.93;;;17.80;36.50;;;;;;5044646;28;20037;-63
2022/03/20 11:47:30;;;;;;;21.45;14.57;;;17.80;35.90;;;;;;5054754;28;20461;-63
2022/03/20 11:50:22;;;;;;;20.75;13.98;;;17.90;36.90;;;;;;5052126;28;20685;-63
2022/03/20 11:53:05;;;;;;;19.88;13.85;;;18.00;35.90;;;;;;5024094;28;20109;-64
2022/03/20 11:55:30;;;;;;;20.80;15.02;;;18.00;37.10;;;;;;5019417;28;20045;-63
2022/03/20 11:57:58;;;;;;;24.55;14.05;;;18.00;36.70;;;;;;5025370;28;20029;-64
2022/03/20 12:00:29;;;;;;;21.48;14.75;;;18.10;36.30;;;;;;5034442;28;20041;-63
2022/03/20 12:03:03;;;;;;;20.40;13.90;;;18.20;34.30;;;;;;5024719;28;20077;-63
2022/03/20 12:05:41;;;;;;;19.60;13.23;;;18.20;34.60;;;;;;5016949;28;20026;-63
2022/03/20 12:08:12;;;;;;;19.95;14.20;;;18.20;35.40;;;;;;5024390;28;20131;-64
2022/03/20 12:11:16;;;;;;;19.00;13.77;;;18.20;35.70;;;;;;5022914;28;20026;-64
2022/03/20 12:13:50;;;;;;;19.08;13.90;;;18.40;35.40;;;;;;5025958;28;20046;-64
2022/03/20 12:16:35;;;;;;;;;;;18.50;35.60;;;;;;5012224;28;20022;-63
2022/03/20 12:19:14;;;;;;;17.95;13.20;;;18.70;36.50;;;;;;5033919;28;19964;-64
2022/03/20 12:22:00;;;;;;;19.33;13.35;;;18.80;34.00;;;;;;5020228;28;20034;-64
2022/03/20 12:24:35;;;;;;;19.40;13.00;;;18.90;34.00;;;;;;5030888;28;20066;-65
2022/03/20 12:27:19;;;;;;;20.30;14.18;;;19.00;34.90;;;;;;5040187;28;20065;-63
2022/03/20 12:30:07;;;;;;;;;;;19.10;34.20;;;;;;5026577;28;20119;-63
2022/03/20 12:32:55;;;;;;;19.13;11.55;;;19.30;35.00;;;;;;5020256;28;20020;-64
2022/03/20 12:35:23;;;;;;;17.05;12.25;;;19.40;34.10;;;;;;5030276;28;20057;-64
2022/03/20 12:37:49;;;;;;;20.08;13.77;;;19.50;34.40;;;;;;5021334;28;20041;-64
2022/03/20 12:40:14;;;;;;;19.95;12.70;;;19.50;33.90;;;;;;5027240;28;20370;-64
2022/03/20 12:42:43;;;;;;;22.25;13.68;;;19.50;33.20;;;;;;5023294;28;20026;-64
2022/03/20 12:45:16;;;;;;;18.65;12.00;;;19.60;32.60;;;;;;5029943;28;20021;-64
2022/03/20 12:47:54;;;;;;;22.63;13.27;;;19.60;32.20;;;;;;5005095;28;20383;-63
2022/03/20 12:50:24;;;;;;;20.88;12.77;;;19.70;31.80;;;;;;5018758;28;20034;-64
2022/03/20 12:52:54;;;;;;;18.40;13.10;;;19.70;33.10;;;;;;5045034;28;20617;-64
2022/03/20 12:55:25;;;;;;;17.42;11.75;;;19.80;32.60;;;;;;5049146;28;20096;-64
2022/03/20 12:57:51;;;;;;;20.15;14.50;;;19.90;32.00;;;;;;5047001;28;20097;-64
2022/03/20 13:00:26;;;;;;;22.67;13.93;;;20.00;32.40;;;;;;5045751;28;20026;-64
2022/03/20 13:03:07;;;;;;;18.48;12.65;;;20.00;32.20;;;;;;5046193;28;20089;-64
2022/03/20 13:05:45;;;;;;;22.33;12.90;;;20.00;31.80;;;;;;5046628;28;20045;-64
2022/03/20 13:08:13;;;;;;;18.70;13.23;;;20.10;32.40;;;;;;5044625;28;20033;-64
2022/03/20 13:10:40;;;;;;;22.25;13.95;;;20.20;32.10;;;;;;5048788;28;20037;-64
2022/03/20 13:13:08;;;;;;;17.27;12.95;;;20.20;31.40;;;;;;5058048;28;20064;-64
2022/03/20 13:15:36;;;;;;;21.63;13.30;;;20.30;31.40;;;;;;5045593;28;20045;-64